sensor_id;sensor_type;location;lat;lon;timestamp;temperature;humidity
31639;DHT22;18248;51.522;7.020;2022-11-02T00:00:35;14.50;99.90
31639;DHT22;18248;51.522;7.020;2022-11-02T00:03:36;14.50;99.90
31639;DHT22;18248;51.522;7.020;2022-11-02T00:06:35;14.50;99.90
31639;DHT22;18248;51.522;7.020;2022-11-02T00:09:33;14.50;99.90
31639;DHT22;18248;51.522;7.020;2022-11-02T00:12:33;14.50;99.90
31639;DHT22;18248;51.522;7.020;2022-11-02T00:15:33;14.50;99.90
31639;DHT22;18248;51.522;7.020;2022-11-02T00:18:34;14.50;99.90
31639;DHT22;18248;51.522;7.020;2022-11-02T00:21:34;14.50;99.90
31639;DHT22;18248;51.522;7.020;2022-11-02T00:24:33;14.50;99.90
31639;DHT22;18248;51.522;7.020;2022-11-02T00:27:33;14.40;99.90
31639;DHT22;18248;51.522;7.020;2022-11-02T00:30:32;14.30;99.90
31639;DHT22;18248;51.522;7.020;2022-11-02T00:33:31;14.30;99.90
31639;DHT22;18248;51.522;7.020;2022-11-02T00:36:29;14.20;99.90
31639;DHT22;18248;51.522;7.020;2022-11-02T00:39:28;14.20;99.90
31639;DHT22;18248;51.522;7.020;2022-11-02T00:42:30;14.20;99.90
31639;DHT22;18248;51.522;7.020;2022-11-02T00:45:28;14.20;99.90
31639;DHT22;18248;51.522;7.020;2022-11-02T00:48:27;14.20;99.90
31639;DHT22;18248;51.522;7.020;2022-11-02T00:51:26;14.20;99.90
31639;DHT22;18248;51.522;7.020;2022-11-02T00:54:25;14.20;99.90
31639;DHT22;18248;51.522;7.020;2022-11-02T00:57:23;14.10;99.90
31639;DHT22;18248;51.522;7.020;2022-11-02T01:00:22;14.20;99.90
31639;DHT22;18248;51.522;7.020;2022-11-02T01:03:21;14.20;99.90
31639;DHT22;18248;51.522;7.020;2022-11-02T01:06:19;14.20;99.90
31639;DHT22;18248;51.522;7.020;2022-11-02T01:09:18;14.20;99.90
31639;DHT22;18248;51.522;7.020;2022-11-02T01:12:16;14.20;99.90
31639;DHT22;18248;51.522;7.020;2022-11-02T01:15:15;14.30;99.90
31639;DHT22;18248;51.522;7.020;2022-11-02T01:18:14;14.20;99.90
31639;DHT22;18248;51.522;7.020;2022-11-02T01:21:13;14.30;99.90
31639;DHT22;18248;51.522;7.020;2022-11-02T01:24:11;14.30;99.90
31639;DHT22;18248;51.522;7.020;2022-11-02T01:27:10;14.30;99.90
31639;DHT22;18248;51.522;7.020;2022-11-02T01:30:09;14.30;99.90
31639;DHT22;18248;51.522;7.020;2022-11-02T01:33:08;14.20;99.90
31639;DHT22;18248;51.522;7.020;2022-11-02T01:36:06;14.20;99.90
31639;DHT22;18248;51.522;7.020;2022-11-02T01:39:05;14.20;99.90
31639;DHT22;18248;51.522;7.020;2022-11-02T01:42:19;14.20;99.90
31639;DHT22;18248;51.522;7.020;2022-11-02T01:45:17;14.10;99.90
31639;DHT22;18248;51.522;7.020;2022-11-02T01:48:17;14.10;99.90
31639;DHT22;18248;51.522;7.020;2022-11-02T01:51:34;14.10;99.90
31639;DHT22;18248;51.522;7.020;2022-11-02T01:54:39;14.10;99.90
31639;DHT22;18248;51.522;7.020;2022-11-02T01:57:39;14.10;99.90
31639;DHT22;18248;51.522;7.020;2022-11-02T02:00:39;14.10;99.90
31639;DHT22;18248;51.522;7.020;2022-11-02T02:03:38;14.10;99.90
31639;DHT22;18248;51.522;7.020;2022-11-02T02:06:38;14.00;99.90
31639;DHT22;18248;51.522;7.020;2022-11-02T02:09:37;14.00;99.90
31639;DHT22;18248;51.522;7.020;2022-11-02T02:12:38;14.10;99.90
31639;DHT22;18248;51.522;7.020;2022-11-02T02:18:58;14.20;99.90
31639;DHT22;18248;51.522;7.020;2022-11-02T02:22:15;14.20;99.90
31639;DHT22;18248;51.522;7.020;2022-11-02T02:28:24;14.10;99.90
31639;DHT22;18248;51.522;7.020;2022-11-02T02:31:57;14.20;99.90
31639;DHT22;18248;51.522;7.020;2022-11-02T02:38:35;14.10;99.90
31639;DHT22;18248;51.522;7.020;2022-11-02T02:41:48;14.10;99.90
31639;DHT22;18248;51.522;7.020;2022-11-02T02:44:57;14.20;99.90
31639;DHT22;18248;51.522;7.020;2022-11-02T02:48:02;14.10;99.90
31639;DHT22;18248;51.522;7.020;2022-11-02T02:51:08;14.20;99.90
31639;DHT22;18248;51.522;7.020;2022-11-02T02:54:12;14.20;99.90
31639;DHT22;18248;51.522;7.020;2022-11-02T02:57:15;14.10;99.90
31639;DHT22;18248;51.522;7.020;2022-11-02T03:00:16;14.10;99.90
31639;DHT22;18248;51.522;7.020;2022-11-02T03:03:19;14.20;99.90
31639;DHT22;18248;51.522;7.020;2022-11-02T03:06:31;14.10;99.90
31639;DHT22;18248;51.522;7.020;2022-11-02T03:09:40;14.20;99.90
31639;DHT22;18248;51.522;7.020;2022-11-02T03:13:00;14.20;99.90
31639;DHT22;18248;51.522;7.020;2022-11-02T03:16:25;14.20;99.90
31639;DHT22;18248;51.522;7.020;2022-11-02T03:19:50;14.20;99.90
31639;DHT22;18248;51.522;7.020;2022-11-02T03:23:15;14.20;99.90
31639;DHT22;18248;51.522;7.020;2022-11-02T03:26:41;14.20;99.90
31639;DHT22;18248;51.522;7.020;2022-11-02T03:29:54;14.20;99.90
31639;DHT22;18248;51.522;7.020;2022-11-02T03:33:28;14.10;99.90
31639;DHT22;18248;51.522;7.020;2022-11-02T03:36:23;14.10;99.90
31639;DHT22;18248;51.522;7.020;2022-11-02T03:39:58;14.10;99.90
31639;DHT22;18248;51.522;7.020;2022-11-02T03:43:01;14.10;99.90
31639;DHT22;18248;51.522;7.020;2022-11-02T03:46:02;14.10;99.90
31639;DHT22;18248;51.522;7.020;2022-11-02T03:49:04;14.10;99.90
31639;DHT22;18248;51.522;7.020;2022-11-02T03:52:11;14.10;99.90
31639;DHT22;18248;51.522;7.020;2022-11-02T03:55:27;14.10;99.90
31639;DHT22;18248;51.522;7.020;2022-11-02T03:58:27;14.00;99.90
31639;DHT22;18248;51.522;7.020;2022-11-02T04:01:27;14.00;99.90
31639;DHT22;18248;51.522;7.020;2022-11-02T04:04:27;14.00;99.90
31639;DHT22;18248;51.522;7.020;2022-11-02T04:07:31;14.00;99.90
31639;DHT22;18248;51.522;7.020;2022-11-02T04:10:51;13.90;99.90
31639;DHT22;18248;51.522;7.020;2022-11-02T04:14:08;13.90;99.90
31639;DHT22;18248;51.522;7.020;2022-11-02T04:17:26;13.90;99.90
31639;DHT22;18248;51.522;7.020;2022-11-02T04:20:42;13.90;99.90
31639;DHT22;18248;51.522;7.020;2022-11-02T04:23:41;13.90;99.90
31639;DHT22;18248;51.522;7.020;2022-11-02T04:26:58;13.90;99.90
31639;DHT22;18248;51.522;7.020;2022-11-02T04:29:57;13.90;99.90
31639;DHT22;18248;51.522;7.020;2022-11-02T04:32:56;13.80;99.90
31639;DHT22;18248;51.522;7.020;2022-11-02T04:36:14;13.80;99.90
31639;DHT22;18248;51.522;7.020;2022-11-02T04:39:12;13.80;99.90
31639;DHT22;18248;51.522;7.020;2022-11-02T04:42:11;13.70;99.90
31639;DHT22;18248;51.522;7.020;2022-11-02T04:45:09;13.80;99.90
31639;DHT22;18248;51.522;7.020;2022-11-02T04:48:08;13.70;99.90
31639;DHT22;18248;51.522;7.020;2022-11-02T04:51:07;13.80;99.90
31639;DHT22;18248;51.522;7.020;2022-11-02T04:54:06;13.80;99.90
31639;DHT22;18248;51.522;7.020;2022-11-02T04:57:04;13.80;99.90
31639;DHT22;18248;51.522;7.020;2022-11-02T05:00:03;13.80;99.90
31639;DHT22;18248;51.522;7.020;2022-11-02T05:03:05;13.80;99.90
31639;DHT22;18248;51.522;7.020;2022-11-02T05:06:05;13.70;99.90
31639;DHT22;18248;51.522;7.020;2022-11-02T05:09:03;13.70;99.90
31639;DHT22;18248;51.522;7.020;2022-11-02T05:12:02;13.80;99.90
31639;DHT22;18248;51.522;7.020;2022-11-02T05:15:02;13.70;99.90
31639;DHT22;18248;51.522;7.020;2022-11-02T05:18:02;13.70;99.90
31639;DHT22;18248;51.522;7.020;2022-11-02T05:21:01;13.70;99.90
31639;DHT22;18248;51.522;7.020;2022-11-02T05:23:59;13.70;99.90
31639;DHT22;18248;51.522;7.020;2022-11-02T05:26:58;13.70;99.90
31639;DHT22;18248;51.522;7.020;2022-11-02T05:29:57;13.70;99.90
31639;DHT22;18248;51.522;7.020;2022-11-02T05:32:57;13.70;99.90
31639;DHT22;18248;51.522;7.020;2022-11-02T05:35:58;13.70;99.90
31639;DHT22;18248;51.522;7.020;2022-11-02T05:38:58;13.70;99.90
31639;DHT22;18248;51.522;7.020;2022-11-02T05:41:57;13.70;99.90
31639;DHT22;18248;51.522;7.020;2022-11-02T05:44:55;13.70;99.90
31639;DHT22;18248;51.522;7.020;2022-11-02T05:47:54;13.70;99.90
31639;DHT22;18248;51.522;7.020;2022-11-02T05:50:57;13.70;99.90
31639;DHT22;18248;51.522;7.020;2022-11-02T05:53:56;13.60;99.90
31639;DHT22;18248;51.522;7.020;2022-11-02T05:56:56;13.60;99.90
31639;DHT22;18248;51.522;7.020;2022-11-02T05:59:54;13.60;99.90
31639;DHT22;18248;51.522;7.020;2022-11-02T06:02:57;13.50;99.90
31639;DHT22;18248;51.522;7.020;2022-11-02T06:06:00;13.50;99.90
31639;DHT22;18248;51.522;7.020;2022-11-02T06:08:59;13.50;99.90
31639;DHT22;18248;51.522;7.020;2022-11-02T06:11:57;13.50;99.90
31639;DHT22;18248;51.522;7.020;2022-11-02T06:14:56;13.50;99.90
31639;DHT22;18248;51.522;7.020;2022-11-02T06:17:54;13.40;99.90
31639;DHT22;18248;51.522;7.020;2022-11-02T06:20:56;13.40;99.90
31639;DHT22;18248;51.522;7.020;2022-11-02T06:23:55;13.40;99.90
31639;DHT22;18248;51.522;7.020;2022-11-02T06:26:53;13.40;99.90
31639;DHT22;18248;51.522;7.020;2022-11-02T06:29:52;13.40;99.90
31639;DHT22;18248;51.522;7.020;2022-11-02T06:32:52;13.40;99.90
31639;DHT22;18248;51.522;7.020;2022-11-02T06:35:52;13.40;99.90
31639;DHT22;18248;51.522;7.020;2022-11-02T06:38:51;13.50;99.90
31639;DHT22;18248;51.522;7.020;2022-11-02T06:41:49;13.50;99.90
31639;DHT22;18248;51.522;7.020;2022-11-02T06:44:48;13.50;99.90
31639;DHT22;18248;51.522;7.020;2022-11-02T06:47:47;13.60;99.90
31639;DHT22;18248;51.522;7.020;2022-11-02T06:50:46;13.60;99.90
31639;DHT22;18248;51.522;7.020;2022-11-02T06:53:44;13.60;99.90
31639;DHT22;18248;51.522;7.020;2022-11-02T06:56:44;13.60;99.90
31639;DHT22;18248;51.522;7.020;2022-11-02T06:59:42;13.60;99.90
31639;DHT22;18248;51.522;7.020;2022-11-02T07:02:41;13.60;99.90
31639;DHT22;18248;51.522;7.020;2022-11-02T07:05:40;13.60;99.90
31639;DHT22;18248;51.522;7.020;2022-11-02T07:08:38;13.60;99.90
31639;DHT22;18248;51.522;7.020;2022-11-02T07:11:37;13.60;99.90
31639;DHT22;18248;51.522;7.020;2022-11-02T07:14:35;13.70;99.90
31639;DHT22;18248;51.522;7.020;2022-11-02T07:17:37;13.60;99.90
31639;DHT22;18248;51.522;7.020;2022-11-02T07:20:36;13.70;99.90
31639;DHT22;18248;51.522;7.020;2022-11-02T07:23:36;13.70;99.90
31639;DHT22;18248;51.522;7.020;2022-11-02T07:26:35;13.70;99.90
31639;DHT22;18248;51.522;7.020;2022-11-02T07:29:33;13.70;99.90
31639;DHT22;18248;51.522;7.020;2022-11-02T07:32:41;13.70;99.90
31639;DHT22;18248;51.522;7.020;2022-11-02T07:35:40;13.70;99.90
31639;DHT22;18248;51.522;7.020;2022-11-02T07:38:40;13.70;99.90
31639;DHT22;18248;51.522;7.020;2022-11-02T07:41:38;13.80;99.90
31639;DHT22;18248;51.522;7.020;2022-11-02T07:44:37;13.80;99.90
31639;DHT22;18248;51.522;7.020;2022-11-02T07:47:45;13.80;99.90
31639;DHT22;18248;51.522;7.020;2022-11-02T07:50:45;13.80;99.90
31639;DHT22;18248;51.522;7.020;2022-11-02T07:53:45;13.80;99.90
31639;DHT22;18248;51.522;7.020;2022-11-02T07:56:45;13.80;99.90
31639;DHT22;18248;51.522;7.020;2022-11-02T07:59:43;13.80;99.90
31639;DHT22;18248;51.522;7.020;2022-11-02T08:02:42;13.90;99.90
31639;DHT22;18248;51.522;7.020;2022-11-02T08:05:41;13.90;99.90
31639;DHT22;18248;51.522;7.020;2022-11-02T08:08:41;14.00;99.90
31639;DHT22;18248;51.522;7.020;2022-11-02T08:11:40;14.00;99.90
31639;DHT22;18248;51.522;7.020;2022-11-02T08:14:39;13.90;99.90
31639;DHT22;18248;51.522;7.020;2022-11-02T08:17:38;14.00;99.90
31639;DHT22;18248;51.522;7.020;2022-11-02T08:20:37;13.90;99.90
31639;DHT22;18248;51.522;7.020;2022-11-02T08:23:35;14.00;99.90
31639;DHT22;18248;51.522;7.020;2022-11-02T08:26:34;13.90;99.90
31639;DHT22;18248;51.522;7.020;2022-11-02T08:29:32;14.00;99.90
31639;DHT22;18248;51.522;7.020;2022-11-02T08:32:32;14.00;99.90
31639;DHT22;18248;51.522;7.020;2022-11-02T08:35:31;14.00;99.90
31639;DHT22;18248;51.522;7.020;2022-11-02T08:38:32;14.00;99.90
31639;DHT22;18248;51.522;7.020;2022-11-02T08:41:33;14.00;99.90
31639;DHT22;18248;51.522;7.020;2022-11-02T08:44:32;14.00;99.90
31639;DHT22;18248;51.522;7.020;2022-11-02T08:47:30;14.10;99.90
31639;DHT22;18248;51.522;7.020;2022-11-02T08:50:29;14.10;99.90
31639;DHT22;18248;51.522;7.020;2022-11-02T08:53:27;14.10;99.90
31639;DHT22;18248;51.522;7.020;2022-11-02T08:56:28;14.20;99.90
31639;DHT22;18248;51.522;7.020;2022-11-02T08:59:27;14.20;99.90
31639;DHT22;18248;51.522;7.020;2022-11-02T09:02:25;14.30;99.90
31639;DHT22;18248;51.522;7.020;2022-11-02T09:05:24;14.40;99.90
31639;DHT22;18248;51.522;7.020;2022-11-02T09:08:22;14.50;99.90
31639;DHT22;18248;51.522;7.020;2022-11-02T09:11:22;14.50;99.90
31639;DHT22;18248;51.522;7.020;2022-11-02T09:14:20;14.50;99.90
31639;DHT22;18248;51.522;7.020;2022-11-02T09:17:19;14.50;99.90
31639;DHT22;18248;51.522;7.020;2022-11-02T09:20:19;14.50;99.90
31639;DHT22;18248;51.522;7.020;2022-11-02T09:23:19;14.60;99.90
31639;DHT22;18248;51.522;7.020;2022-11-02T09:26:18;14.60;99.90
31639;DHT22;18248;51.522;7.020;2022-11-02T09:29:16;14.70;99.90
31639;DHT22;18248;51.522;7.020;2022-11-02T09:32:15;14.60;99.90
31639;DHT22;18248;51.522;7.020;2022-11-02T09:35:13;14.70;99.90
31639;DHT22;18248;51.522;7.020;2022-11-02T09:38:16;14.80;99.90
31639;DHT22;18248;51.522;7.020;2022-11-02T09:41:37;14.80;99.90
31639;DHT22;18248;51.522;7.020;2022-11-02T09:44:58;14.80;99.90
31639;DHT22;18248;51.522;7.020;2022-11-02T09:48:06;14.90;99.90
31639;DHT22;18248;51.522;7.020;2022-11-02T09:51:12;14.90;99.90
31639;DHT22;18248;51.522;7.020;2022-11-02T09:57:16;15.20;99.90
31639;DHT22;18248;51.522;7.020;2022-11-02T10:00:17;15.30;99.90
31639;DHT22;18248;51.522;7.020;2022-11-02T10:06:34;15.50;99.90
31639;DHT22;18248;51.522;7.020;2022-11-02T10:09:45;15.60;99.90
31639;DHT22;18248;51.522;7.020;2022-11-02T10:15:47;15.60;99.90
31639;DHT22;18248;51.522;7.020;2022-11-02T10:18:48;15.60;99.90
31639;DHT22;18248;51.522;7.020;2022-11-02T10:21:51;15.70;99.90
31639;DHT22;18248;51.522;7.020;2022-11-02T10:24:53;15.80;99.90
31639;DHT22;18248;51.522;7.020;2022-11-02T10:28:04;15.80;99.90
31639;DHT22;18248;51.522;7.020;2022-11-02T10:31:21;16.00;99.90
31639;DHT22;18248;51.522;7.020;2022-11-02T10:34:27;16.20;99.90
31639;DHT22;18248;51.522;7.020;2022-11-02T10:41:02;16.40;99.90
31639;DHT22;18248;51.522;7.020;2022-11-02T10:47:16;16.30;99.90
31639;DHT22;18248;51.522;7.020;2022-11-02T10:50:52;16.50;99.90
31639;DHT22;18248;51.522;7.020;2022-11-02T10:53:54;16.70;99.90
31639;DHT22;18248;51.522;7.020;2022-11-02T10:56:55;16.90;99.90
31639;DHT22;18248;51.522;7.020;2022-11-02T11:00:22;17.00;99.90
31639;DHT22;18248;51.522;7.020;2022-11-02T11:03:21;17.10;99.90
31639;DHT22;18248;51.522;7.020;2022-11-02T11:06:19;17.20;99.90
31639;DHT22;18248;51.522;7.020;2022-11-02T11:09:27;17.30;99.90
31639;DHT22;18248;51.522;7.020;2022-11-02T11:12:32;17.40;99.90
31639;DHT22;18248;51.522;7.020;2022-11-02T11:15:35;17.40;99.90
31639;DHT22;18248;51.522;7.020;2022-11-02T11:18:35;17.50;99.90
31639;DHT22;18248;51.522;7.020;2022-11-02T11:21:36;17.60;99.90
31639;DHT22;18248;51.522;7.020;2022-11-02T11:24:35;17.50;99.90
31639;DHT22;18248;51.522;7.020;2022-11-02T11:27:44;17.50;99.90
31639;DHT22;18248;51.522;7.020;2022-11-02T11:30:47;17.50;99.90
31639;DHT22;18248;51.522;7.020;2022-11-02T11:33:59;17.50;99.90
31639;DHT22;18248;51.522;7.020;2022-11-02T11:37:09;17.50;99.90
31639;DHT22;18248;51.522;7.020;2022-11-02T11:40:17;17.50;99.90
31639;DHT22;18248;51.522;7.020;2022-11-02T11:43:16;17.40;99.90
31639;DHT22;18248;51.522;7.020;2022-11-02T11:46:16;17.40;99.90
31639;DHT22;18248;51.522;7.020;2022-11-02T11:49:22;17.50;99.90
31639;DHT22;18248;51.522;7.020;2022-11-02T11:52:27;17.60;99.90
31639;DHT22;18248;51.522;7.020;2022-11-02T11:55:28;17.70;99.90
31639;DHT22;18248;51.522;7.020;2022-11-02T11:58:33;17.70;99.90
31639;DHT22;18248;51.522;7.020;2022-11-02T12:01:38;17.80;99.90
31639;DHT22;18248;51.522;7.020;2022-11-02T12:04:37;17.90;99.90
31639;DHT22;18248;51.522;7.020;2022-11-02T12:07:51;18.00;99.90
31639;DHT22;18248;51.522;7.020;2022-11-02T12:11:11;18.00;99.90
31639;DHT22;18248;51.522;7.020;2022-11-02T12:17:23;18.10;99.90
31639;DHT22;18248;51.522;7.020;2022-11-02T12:20:48;18.10;99.90
31639;DHT22;18248;51.522;7.020;2022-11-02T12:27:33;18.10;99.90
31639;DHT22;18248;51.522;7.020;2022-11-02T12:34:27;17.70;99.90
31639;DHT22;18248;51.522;7.020;2022-11-02T12:40:54;18.00;99.90
31639;DHT22;18248;51.522;7.020;2022-11-02T12:44:05;18.10;99.90
31639;DHT22;18248;51.522;7.020;2022-11-02T12:47:51;18.10;99.90
31639;DHT22;18248;51.522;7.020;2022-11-02T12:51:08;18.20;99.90
31639;DHT22;18248;51.522;7.020;2022-11-02T12:54:10;18.10;99.90
31639;DHT22;18248;51.522;7.020;2022-11-02T12:57:12;18.20;99.90
31639;DHT22;18248;51.522;7.020;2022-11-02T13:00:37;18.20;99.90
31639;DHT22;18248;51.522;7.020;2022-11-02T13:04:02;18.10;99.90
31639;DHT22;18248;51.522;7.020;2022-11-02T13:07:12;18.20;99.90
31639;DHT22;18248;51.522;7.020;2022-11-02T13:10:14;18.20;99.90
31639;DHT22;18248;51.522;7.020;2022-11-02T13:13:15;18.00;99.90
31639;DHT22;18248;51.522;7.020;2022-11-02T13:16:16;17.80;99.90
31639;DHT22;18248;51.522;7.020;2022-11-02T13:19:32;17.70;99.90
31639;DHT22;18248;51.522;7.020;2022-11-02T13:22:34;17.80;99.90
31639;DHT22;18248;51.522;7.020;2022-11-02T13:25:38;17.80;99.90
31639;DHT22;18248;51.522;7.020;2022-11-02T13:28:53;17.70;99.90
31639;DHT22;18248;51.522;7.020;2022-11-02T13:32:00;17.50;99.90
31639;DHT22;18248;51.522;7.020;2022-11-02T13:38:38;17.20;99.90
31639;DHT22;18248;51.522;7.020;2022-11-02T13:42:08;17.10;99.90
31639;DHT22;18248;51.522;7.020;2022-11-02T13:45:19;17.10;99.90
31639;DHT22;18248;51.522;7.020;2022-11-02T13:48:34;17.00;99.90
31639;DHT22;18248;51.522;7.020;2022-11-02T13:51:53;17.00;99.90
31639;DHT22;18248;51.522;7.020;2022-11-02T13:54:58;17.10;99.90
31639;DHT22;18248;51.522;7.020;2022-11-02T13:57:58;17.10;99.90
31639;DHT22;18248;51.522;7.020;2022-11-02T14:01:05;17.10;99.90
31639;DHT22;18248;51.522;7.020;2022-11-02T14:04:10;17.10;99.90
31639;DHT22;18248;51.522;7.020;2022-11-02T14:07:37;17.20;99.90
31639;DHT22;18248;51.522;7.020;2022-11-02T14:10:39;17.20;99.90
31639;DHT22;18248;51.522;7.020;2022-11-02T14:19:52;17.30;99.90
31639;DHT22;18248;51.522;7.020;2022-11-02T14:26:30;17.20;99.90
31639;DHT22;18248;51.522;7.020;2022-11-02T14:29:51;17.20;99.90
31639;DHT22;18248;51.522;7.020;2022-11-02T14:33:02;17.20;99.90
31639;DHT22;18248;51.522;7.020;2022-11-02T14:46:37;16.70;99.90
31639;DHT22;18248;51.522;7.020;2022-11-02T14:49:46;16.60;99.90
31639;DHT22;18248;51.522;7.020;2022-11-02T14:53:25;16.60;99.90
31639;DHT22;18248;51.522;7.020;2022-11-02T15:00:15;16.40;99.90
31639;DHT22;18248;51.522;7.020;2022-11-02T15:06:25;16.30;99.90
31639;DHT22;18248;51.522;7.020;2022-11-02T15:10:44;16.30;99.90
31639;DHT22;18248;51.522;7.020;2022-11-02T15:16:20;16.20;99.90
31639;DHT22;18248;51.522;7.020;2022-11-02T15:19:45;16.10;99.90
31639;DHT22;18248;51.522;7.020;2022-11-02T15:22:48;16.00;99.90
31639;DHT22;18248;51.522;7.020;2022-11-02T15:25:50;16.00;99.90
31639;DHT22;18248;51.522;7.020;2022-11-02T15:28:50;15.90;99.90
31639;DHT22;18248;51.522;7.020;2022-11-02T15:31:55;15.90;99.90
31639;DHT22;18248;51.522;7.020;2022-11-02T15:34:56;15.90;99.90
31639;DHT22;18248;51.522;7.020;2022-11-02T15:37:57;15.80;99.90
31639;DHT22;18248;51.522;7.020;2022-11-02T15:41:12;15.70;99.90
31639;DHT22;18248;51.522;7.020;2022-11-02T15:54:24;15.50;99.90
31639;DHT22;18248;51.522;7.020;2022-11-02T15:57:36;15.40;99.90
31639;DHT22;18248;51.522;7.020;2022-11-02T16:00:37;15.40;99.90
31639;DHT22;18248;51.522;7.020;2022-11-02T16:03:36;15.30;99.90
31639;DHT22;18248;51.522;7.020;2022-11-02T16:06:35;15.20;99.90
31639;DHT22;18248;51.522;7.020;2022-11-02T16:09:37;15.20;99.90
31639;DHT22;18248;51.522;7.020;2022-11-02T16:12:36;15.10;99.90
31639;DHT22;18248;51.522;7.020;2022-11-02T16:15:36;15.00;99.90
31639;DHT22;18248;51.522;7.020;2022-11-02T16:18:39;15.00;99.90
31639;DHT22;18248;51.522;7.020;2022-11-02T16:21:38;14.90;99.90
31639;DHT22;18248;51.522;7.020;2022-11-02T16:24:40;14.80;99.90
31639;DHT22;18248;51.522;7.020;2022-11-02T16:27:41;14.80;99.90
31639;DHT22;18248;51.522;7.020;2022-11-02T16:30:40;14.60;99.90
31639;DHT22;18248;51.522;7.020;2022-11-02T16:33:46;14.60;99.90
31639;DHT22;18248;51.522;7.020;2022-11-02T16:36:45;14.50;99.90
31639;DHT22;18248;51.522;7.020;2022-11-02T16:39:45;14.40;99.90
31639;DHT22;18248;51.522;7.020;2022-11-02T16:42:51;14.30;99.90
31639;DHT22;18248;51.522;7.020;2022-11-02T16:45:50;14.30;99.90
31639;DHT22;18248;51.522;7.020;2022-11-02T16:58:30;14.00;99.90
31639;DHT22;18248;51.522;7.020;2022-11-02T17:01:36;13.80;99.90
31639;DHT22;18248;51.522;7.020;2022-11-02T17:04:39;13.80;99.90
31639;DHT22;18248;51.522;7.020;2022-11-02T17:07:40;13.70;99.90
31639;DHT22;18248;51.522;7.020;2022-11-02T17:10:40;13.70;99.90
31639;DHT22;18248;51.522;7.020;2022-11-02T17:13:47;13.60;99.90
31639;DHT22;18248;51.522;7.020;2022-11-02T17:17:06;13.50;99.90
31639;DHT22;18248;51.522;7.020;2022-11-02T17:20:15;13.50;99.90
31639;DHT22;18248;51.522;7.020;2022-11-02T17:23:32;13.40;99.90
31639;DHT22;18248;51.522;7.020;2022-11-02T17:26:34;13.40;99.90
31639;DHT22;18248;51.522;7.020;2022-11-02T17:29:38;13.40;99.90
31639;DHT22;18248;51.522;7.020;2022-11-02T17:32:37;13.30;99.90
31639;DHT22;18248;51.522;7.020;2022-11-02T17:35:37;13.30;99.90
31639;DHT22;18248;51.522;7.020;2022-11-02T17:38:42;13.30;99.90
31639;DHT22;18248;51.522;7.020;2022-11-02T17:41:52;13.40;99.90
31639;DHT22;18248;51.522;7.020;2022-11-02T17:45:34;13.40;99.90
31639;DHT22;18248;51.522;7.020;2022-11-02T17:48:34;13.40;99.90
31639;DHT22;18248;51.522;7.020;2022-11-02T17:51:33;13.30;99.90
31639;DHT22;18248;51.522;7.020;2022-11-02T17:54:31;13.30;99.90
31639;DHT22;18248;51.522;7.020;2022-11-02T17:57:31;13.40;99.90
31639;DHT22;18248;51.522;7.020;2022-11-02T18:00:32;13.40;99.90
31639;DHT22;18248;51.522;7.020;2022-11-02T18:03:31;13.30;99.90
31639;DHT22;18248;51.522;7.020;2022-11-02T18:06:30;13.30;99.90
31639;DHT22;18248;51.522;7.020;2022-11-02T18:09:29;13.30;99.90
31639;DHT22;18248;51.522;7.020;2022-11-02T18:12:27;13.30;99.90
31639;DHT22;18248;51.522;7.020;2022-11-02T18:15:29;13.20;99.90
31639;DHT22;18248;51.522;7.020;2022-11-02T18:18:28;13.30;99.90
31639;DHT22;18248;51.522;7.020;2022-11-02T18:21:26;13.20;99.90
31639;DHT22;18248;51.522;7.020;2022-11-02T18:24:25;13.20;99.90
31639;DHT22;18248;51.522;7.020;2022-11-02T18:27:23;13.30;99.90
31639;DHT22;18248;51.522;7.020;2022-11-02T18:30:22;13.20;99.90
31639;DHT22;18248;51.522;7.020;2022-11-02T18:33:23;13.20;99.90
31639;DHT22;18248;51.522;7.020;2022-11-02T18:36:22;13.20;99.90
31639;DHT22;18248;51.522;7.020;2022-11-02T18:39:20;13.20;99.90
31639;DHT22;18248;51.522;7.020;2022-11-02T18:42:20;13.20;99.90
31639;DHT22;18248;51.522;7.020;2022-11-02T18:45:19;13.20;99.90
31639;DHT22;18248;51.522;7.020;2022-11-02T18:48:19;13.20;99.90
31639;DHT22;18248;51.522;7.020;2022-11-02T18:51:17;13.20;99.90
31639;DHT22;18248;51.522;7.020;2022-11-02T18:54:16;13.20;99.90
31639;DHT22;18248;51.522;7.020;2022-11-02T18:57:15;13.20;99.90
31639;DHT22;18248;51.522;7.020;2022-11-02T19:00:14;13.20;99.90
31639;DHT22;18248;51.522;7.020;2022-11-02T19:03:12;13.20;99.90
31639;DHT22;18248;51.522;7.020;2022-11-02T19:06:14;13.20;99.90
31639;DHT22;18248;51.522;7.020;2022-11-02T19:09:30;13.20;99.90
31639;DHT22;18248;51.522;7.020;2022-11-02T19:12:30;13.20;99.90
31639;DHT22;18248;51.522;7.020;2022-11-02T19:15:32;13.20;99.90
31639;DHT22;18248;51.522;7.020;2022-11-02T19:18:31;13.20;99.90
31639;DHT22;18248;51.522;7.020;2022-11-02T19:21:31;13.20;99.90
31639;DHT22;18248;51.522;7.020;2022-11-02T19:24:31;13.20;99.90
31639;DHT22;18248;51.522;7.020;2022-11-02T19:27:29;13.20;99.90
31639;DHT22;18248;51.522;7.020;2022-11-02T19:30:28;13.20;99.90
31639;DHT22;18248;51.522;7.020;2022-11-02T19:33:27;13.20;99.90
31639;DHT22;18248;51.522;7.020;2022-11-02T19:36:26;13.20;99.90
31639;DHT22;18248;51.522;7.020;2022-11-02T19:39:25;13.20;99.90
31639;DHT22;18248;51.522;7.020;2022-11-02T19:42:24;13.20;99.90
31639;DHT22;18248;51.522;7.020;2022-11-02T19:45:22;13.20;99.90
31639;DHT22;18248;51.522;7.020;2022-11-02T19:48:21;13.20;99.90
31639;DHT22;18248;51.522;7.020;2022-11-02T19:51:21;13.20;99.90
31639;DHT22;18248;51.522;7.020;2022-11-02T19:54:20;13.20;99.90
31639;DHT22;18248;51.522;7.020;2022-11-02T19:57:18;13.20;99.90
31639;DHT22;18248;51.522;7.020;2022-11-02T20:00:17;13.20;99.90
31639;DHT22;18248;51.522;7.020;2022-11-02T20:03:15;13.30;99.90
31639;DHT22;18248;51.522;7.020;2022-11-02T20:06:20;13.20;99.90
31639;DHT22;18248;51.522;7.020;2022-11-02T20:09:19;13.30;99.90
31639;DHT22;18248;51.522;7.020;2022-11-02T20:12:18;13.20;99.90
31639;DHT22;18248;51.522;7.020;2022-11-02T20:15:17;13.20;99.90
31639;DHT22;18248;51.522;7.020;2022-11-02T20:18:16;13.20;99.90
31639;DHT22;18248;51.522;7.020;2022-11-02T20:21:25;13.20;99.90
31639;DHT22;18248;51.522;7.020;2022-11-02T20:24:24;13.20;99.90
31639;DHT22;18248;51.522;7.020;2022-11-02T20:27:23;13.20;99.90
31639;DHT22;18248;51.522;7.020;2022-11-02T20:30:21;13.20;99.90
31639;DHT22;18248;51.522;7.020;2022-11-02T20:33:21;13.20;99.90
31639;DHT22;18248;51.522;7.020;2022-11-02T20:36:22;13.20;99.90
31639;DHT22;18248;51.522;7.020;2022-11-02T20:39:21;13.20;99.90
31639;DHT22;18248;51.522;7.020;2022-11-02T20:42:19;13.20;99.90
31639;DHT22;18248;51.522;7.020;2022-11-02T20:45:19;13.20;99.90
31639;DHT22;18248;51.522;7.020;2022-11-02T20:48:21;13.20;99.90
31639;DHT22;18248;51.522;7.020;2022-11-02T20:51:21;13.10;99.90